地図

経路データ

SID SEASON NUMBER BASIN SUBBASIN NAME ISO_TIME NATURE LAT LON WMO_WIND WMO_PRES WMO_AGENCY TRACK_TYPE DIST2LAND LANDFALL IFLAG USA_AGENCY USA_ATCF_ID USA_LAT USA_LON USA_RECORD USA_STATUS USA_WIND USA_PRES USA_SSHS USA_R34_NE USA_R34_SE USA_R34_SW USA_R34_NW USA_R50_NE USA_R50_SE USA_R50_SW USA_R50_NW USA_R64_NE USA_R64_SE USA_R64_SW USA_R64_NW USA_POCI USA_ROCI USA_RMW USA_EYE TOKYO_LAT TOKYO_LON TOKYO_GRADE TOKYO_WIND TOKYO_PRES TOKYO_R50_DIR TOKYO_R50_LONG TOKYO_R50_SHORT TOKYO_R30_DIR TOKYO_R30_LONG TOKYO_R30_SHORT TOKYO_LAND CMA_LAT CMA_LON CMA_CAT CMA_WIND CMA_PRES HKO_LAT HKO_LON HKO_CAT HKO_WIND HKO_PRES NEWDELHI_LAT NEWDELHI_LON NEWDELHI_GRADE NEWDELHI_WIND NEWDELHI_PRES NEWDELHI_CI NEWDELHI_DP NEWDELHI_POCI REUNION_LAT REUNION_LON REUNION_TYPE REUNION_WIND REUNION_PRES REUNION_TNUM REUNION_CI REUNION_RMW REUNION_R34_NE REUNION_R34_SE REUNION_R34_SW REUNION_R34_NW REUNION_R50_NE REUNION_R50_SE REUNION_R50_SW REUNION_R50_NW REUNION_R64_NE REUNION_R64_SE REUNION_R64_SW REUNION_R64_NW BOM_LAT BOM_LON BOM_TYPE BOM_WIND BOM_PRES BOM_TNUM BOM_CI BOM_RMW BOM_R34_NE BOM_R34_SE BOM_R34_SW BOM_R34_NW BOM_R50_NE BOM_R50_SE BOM_R50_SW BOM_R50_NW BOM_R64_NE BOM_R64_SE BOM_R64_SW BOM_R64_NW BOM_ROCI BOM_POCI BOM_EYE BOM_POS_METHOD BOM_PRES_METHOD NADI_LAT NADI_LON NADI_CAT NADI_WIND NADI_PRES WELLINGTON_LAT WELLINGTON_LON WELLINGTON_WIND WELLINGTON_PRES DS824_LAT DS824_LON DS824_STAGE DS824_WIND DS824_PRES TD9636_LAT TD9636_LON TD9636_STAGE TD9636_WIND TD9636_PRES TD9635_LAT TD9635_LON TD9635_WIND TD9635_PRES TD9635_ROCI NEUMANN_LAT NEUMANN_LON NEUMANN_CLASS NEUMANN_WIND NEUMANN_PRES MLC_LAT MLC_LON MLC_CLASS MLC_WIND MLC_PRES USA_GUST BOM_GUST BOM_GUST_PER REUNION_GUST REUNION_GUST_PER USA_SEAHGT USA_SEARAD_NE USA_SEARAD_SE USA_SEARAD_SW USA_SEARAD_NW STORM_SPEED STORM_DIR
1908102S07054 1908 16 SI MM NOT_NAMED 1908-04-11 06:00:00 NR -6.80000 53.7000 reunion main 765 727 _____O________ -1 -6.80000 53.7000 99 9.90000 7 240
1908102S07054 1908 16 SI MM NOT_NAMED 1908-04-11 09:00:00 NR -6.97230 53.4003 main 727 698 _____P________ -1 -6.97230 53.4003 99 7 240
1908102S07054 1908 16 SI MM NOT_NAMED 1908-04-11 12:00:00 NR -7.14831 53.0957 main 698 660 _____P________ -1 -7.14831 53.0957 99 7 240
1908102S07054 1908 16 SI MM NOT_NAMED 1908-04-11 15:00:00 NR -7.33192 52.7816 main 660 623 _____P________ -1 -7.33192 52.7816 99 7 239
1908102S07054 1908 16 SI MM NOT_NAMED 1908-04-11 18:00:00 NR -7.52703 52.4531 main 623 580 _____P________ -1 -7.52703 52.4531 99 8 239
1908102S07054 1908 16 SI MM NOT_NAMED 1908-04-11 21:00:00 NR -7.73752 52.1056 main 580 534 _____P________ -1 -7.73752 52.1056 99 8 238
1908102S07054 1908 16 SI MM NOT_NAMED 1908-04-12 00:00:00 NR -7.96727 51.7342 main 529 493 _____P________ -1 -7.96727 51.7342 99 9 238
1908102S07054 1908 16 SI MM NOT_NAMED 1908-04-12 03:00:00 NR -8.22015 51.3340 main 488 439 _____P________ -1 -8.22015 51.3340 99 10 237
1908102S07054 1908 16 SI MM NOT_NAMED 1908-04-12 06:00:00 NR -8.50000 50.9000 reunion main 439 392 _____O________ -1 -8.50000 50.9000 99 9.90000 11 237
1908102S07054 1908 16 SI MM NOT_NAMED 1908-04-12 09:00:00 NR -8.80895 50.4296 main 388 344 _____P________ -1 -8.80895 50.4296 99 12 236
1908102S07054 1908 16 SI MM NOT_NAMED 1908-04-12 12:00:00 NR -9.14230 49.9293 main 342 291 _____P________ -1 -9.14230 49.9293 99 12 236
1908102S07054 1908 16 SI MM NOT_NAMED 1908-04-12 15:00:00 NR -9.49367 49.4079 main 291 258 _____P________ -1 -9.49367 49.4079 99 13 236
1908102S07054 1908 16 SI MM NOT_NAMED 1908-04-12 18:00:00 NR -9.85669 48.8744 main 248 230 _____P________ -1 -9.85669 48.8744 99 13 235
1908102S07054 1908 16 SI MM NOT_NAMED 1908-04-12 21:00:00 NR -10.2251 48.3377 main 234 219 _____P________ -1 -10.2251 48.3377 99 13 235
1908102S07054 1908 16 SI MM NOT_NAMED 1908-04-13 00:00:00 NR -10.5925 47.8070 main 227 226 _____P________ -1 -10.5925 47.8070 99 13 235
1908102S07054 1908 16 SI MM NOT_NAMED 1908-04-13 03:00:00 NR -10.9529 47.2914 main 234 234 _____P________ -1 -10.9529 47.2914 99 12 234
1908102S07054 1908 16 SI MM NOT_NAMED 1908-04-13 06:00:00 NR -11.3000 46.8000 reunion main 255 255 _____O________ -1 -11.3000 46.8000 99 9.90000 11 234
1908102S07054 1908 16 SI MM NOT_NAMED 1908-04-13 09:00:00 NR -11.6157 46.3483 main 290 280 _____P________ -1 -11.6157 46.3483 99 11 234
1908102S07054 1908 16 SI MM NOT_NAMED 1908-04-13 12:00:00 NR -11.9219 45.9158 main 296 288 _____P________ -1 -11.9219 45.9158 99 10 234
1908102S07054 1908 16 SI MM NOT_NAMED 1908-04-13 15:00:00 NR -12.2192 45.5020 main 309 303 _____P________ -1 -12.2192 45.5020 99 10 233
1908102S07054 1908 16 SI MM NOT_NAMED 1908-04-13 18:00:00 NR -12.5085 45.1066 main 331 331 _____P________ -1 -12.5085 45.1066 99 9 233
1908102S07054 1908 16 SI MM NOT_NAMED 1908-04-13 21:00:00 NR -12.7906 44.7291 main 356 333 _____P________ -1 -12.7906 44.7291 99 9 232
1908102S07054 1908 16 SI MM NOT_NAMED 1908-04-14 00:00:00 NR -13.0660 44.3691 main 333 320 _____P________ -1 -13.0660 44.3691 99 9 232
1908102S07054 1908 16 SI MM NOT_NAMED 1908-04-14 03:00:00 NR -13.3356 44.0262 main 324 302 _____P________ -1 -13.3356 44.0262 99 8 231
1908102S07054 1908 16 SI MM NOT_NAMED 1908-04-14 06:00:00 NR -13.6000 43.7000 reunion main 307 291 _____O________ -1 -13.6000 43.7000 99 9.90000 8 230
1908102S07054 1908 16 SI MM NOT_NAMED 1908-04-14 09:00:00 NR -13.8599 43.3899 main 288 251 _____P________ -1 -13.8599 43.3899 99 8 229
1908102S07054 1908 16 SI MM NOT_NAMED 1908-04-14 12:00:00 NR -14.1160 43.0940 main 251 215 _____P________ -1 -14.1160 43.0940 99 8 228
1908102S07054 1908 16 SI MM NOT_NAMED 1908-04-14 15:00:00 NR -14.3686 42.8102 main 215 193 _____P________ -1 -14.3686 42.8102 99 7 227
1908102S07054 1908 16 SI MM NOT_NAMED 1908-04-14 18:00:00 NR -14.6185 42.5365 main 183 161 _____P________ -1 -14.6185 42.5365 99 7 226
1908102S07054 1908 16 SI MM NOT_NAMED 1908-04-14 21:00:00 NR -14.8660 42.2708 main 161 129 _____P________ -1 -14.8660 42.2708 99 7 226
1908102S07054 1908 16 SI MM NOT_NAMED 1908-04-15 00:00:00 NR -15.1118 42.0109 main 129 112 _____P________ -1 -15.1118 42.0109 99 7 226
1908102S07054 1908 16 SI MM NOT_NAMED 1908-04-15 03:00:00 NR -15.3563 41.7546 main 116 99 _____P________ -1 -15.3563 41.7546 99 7 225
1908102S07054 1908 16 SI MM NOT_NAMED 1908-04-15 06:00:00 NR -15.6000 41.5000 reunion main 99 _____O________ -1 -15.6000 41.5000 99 9.90000 7 225

IBTrACS Databaseについて

本データベースは、米国NOAAが公開する1842年以降の世界の熱帯低気圧のベストトラックデータアーカイブInternational Best Track Archive for Climate Stewardship (IBTrACS)を、ウェブで閲覧しやすい形式に変換したものです。

最終更新日:2021-12-06